Terminal Aerodrome Forecast
Issued by NWS

Home | Current Version | Previous Version | Text Only | Print | Product List | Glossary On
Versions: 1 2 3 4 5 6 7 8 9 10 11 12 13 14 15
395
FTUS43 KGRR 291406 AAA
TAFBTL
TAF AMD
KBTL 291406Z 2914/3012 06007KT P6SM -SHRA VCTS SCT008 OVC025CB
      TEMPO 2915/2917 1 1/2SM TSRA BR BKN008CB
     FM291700 06007KT P6SM VCTS BKN035CB
     FM300200 07007KT P6SM VCSH BKN050=

USA.gov is the U.S. government's official web portal to all federal, state and local government web resources and services.